createdAt,value
2023-02-17T00:00:40.601Z,101520.59
2023-02-17T00:01:55.139Z,101525.94
2023-02-17T00:02:58.892Z,101522.70
2023-02-17T00:04:02.202Z,101520.51
2023-02-17T00:05:06.819Z,101522.88
2023-02-17T00:06:11.456Z,101522.77
2023-02-17T00:07:14.381Z,101520.98
2023-02-17T00:08:17.312Z,101521.00
2023-02-17T00:09:20.428Z,101520.43
2023-02-17T00:10:23.209Z,101523.41
2023-02-17T00:11:28.398Z,101522.25
2023-02-17T00:12:31.450Z,101517.75
2023-02-17T00:13:34.608Z,101514.38
2023-02-17T00:14:40.138Z,101520.43
2023-02-17T00:15:43.067Z,101514.89
2023-02-17T00:16:46.176Z,101511.08
2023-02-17T00:17:49.068Z,101512.73
2023-02-17T00:18:58.350Z,101511.06
2023-02-17T00:20:01.442Z,101508.81
2023-02-17T00:21:15.663Z,101509.45
2023-02-17T00:22:18.707Z,101512.73
2023-02-17T00:23:21.615Z,101509.75
2023-02-17T00:24:26.150Z,101506.61
2023-02-17T00:25:29.282Z,101506.20
2023-02-17T00:26:32.232Z,101507.86
2023-02-17T00:27:35.366Z,101504.95
2023-02-17T00:28:38.425Z,101508.77
2023-02-17T00:29:41.393Z,101501.82
2023-02-17T00:30:44.509Z,101502.09
2023-02-17T00:31:48.134Z,101504.70
2023-02-17T00:32:52.409Z,101498.45
2023-02-17T00:33:56.666Z,101502.19
2023-02-17T00:34:59.653Z,101501.08
2023-02-17T00:36:07.928Z,101502.94
2023-02-17T00:37:11.274Z,101502.04
2023-02-17T00:38:14.389Z,101501.05
2023-02-17T00:39:17.934Z,101502.89
2023-02-17T00:40:21.500Z,101497.55
2023-02-17T00:41:28.894Z,101502.82
2023-02-17T00:42:33.810Z,101496.34
2023-02-17T00:43:36.794Z,101500.25
2023-02-17T00:44:39.842Z,101495.08
2023-02-17T00:45:42.794Z,101495.84
2023-02-17T00:46:47.034Z,101489.73
2023-02-17T00:47:50.031Z,101493.38
2023-02-17T00:48:53.622Z,101491.94
2023-02-17T00:49:57.072Z,101495.98
2023-02-17T00:51:02.625Z,101487.67
2023-02-17T00:52:05.612Z,101487.02
2023-02-17T00:53:09.931Z,101488.39
2023-02-17T00:54:14.758Z,101485.88
2023-02-17T00:55:18.214Z,101485.26
2023-02-17T00:56:21.083Z,101482.34
2023-02-17T00:57:24.851Z,101480.88
2023-02-17T00:58:27.953Z,101477.98
2023-02-17T00:59:31.110Z,101481.78
2023-02-17T01:00:34.100Z,101481.79
2023-02-17T01:01:38.400Z,101474.23
2023-02-17T01:02:41.505Z,101470.30
2023-02-17T01:03:44.519Z,101471.37
2023-02-17T01:04:47.853Z,101469.46
2023-02-17T01:05:51.970Z,101470.50
2023-02-17T01:06:55.027Z,101466.77
2023-02-17T01:07:59.880Z,101468.50
2023-02-17T01:09:06.725Z,101463.63
2023-02-17T01:10:10.383Z,101463.09
2023-02-17T01:11:18.811Z,101456.67
2023-02-17T01:12:22.333Z,101456.29
2023-02-17T01:13:25.735Z,101462.21
2023-02-17T01:14:28.665Z,101455.20
2023-02-17T01:15:33.176Z,101457.59
2023-02-17T01:16:39.355Z,101459.95
2023-02-17T01:17:42.478Z,101456.85
2023-02-17T01:18:45.753Z,101457.55
2023-02-17T01:19:48.735Z,101456.95
2023-02-17T01:20:52.734Z,101454.89
2023-02-17T01:21:55.677Z,101452.02
2023-02-17T01:22:58.531Z,101452.77
2023-02-17T01:24:04.685Z,101456.12
2023-02-17T01:25:08.288Z,101457.36
2023-02-17T01:26:18.889Z,101453.29
2023-02-17T01:27:21.845Z,101452.31
2023-02-17T01:28:24.822Z,101455.55
2023-02-17T01:29:28.736Z,101454.95
2023-02-17T01:30:32.162Z,101454.71
2023-02-17T01:31:36.081Z,101454.58
2023-02-17T01:32:39.062Z,101454.74
2023-02-17T01:33:41.989Z,101457.55
2023-02-17T01:34:45.259Z,101457.21
2023-02-17T01:35:48.319Z,101457.05
2023-02-17T01:36:51.516Z,101456.05
2023-02-17T01:37:54.437Z,101455.64
2023-02-17T01:39:00.128Z,101454.88
2023-02-17T01:40:04.282Z,101450.00
2023-02-17T01:41:09.613Z,101445.63
2023-02-17T01:42:20.120Z,101443.35
2023-02-17T01:43:25.085Z,101442.85
2023-02-17T01:44:32.187Z,101443.72
2023-02-17T01:45:41.614Z,101446.45
2023-02-17T01:46:52.767Z,101447.98
2023-02-17T01:48:02.093Z,101442.55
2023-02-17T01:49:15.590Z,101445.52
2023-02-17T01:50:22.599Z,101445.26
2023-02-17T01:51:30.562Z,101444.30
2023-02-17T01:52:33.540Z,101443.30
2023-02-17T01:53:48.692Z,101438.69
2023-02-17T01:55:07.001Z,101444.72
2023-02-17T01:56:11.925Z,101440.05
2023-02-17T01:57:18.219Z,101440.88
2023-02-17T01:58:24.883Z,101437.67
2023-02-17T01:59:29.931Z,101445.06
2023-02-17T02:00:34.941Z,101439.25
2023-02-17T02:01:39.233Z,101436.30
2023-02-17T02:02:46.144Z,101438.19
2023-02-17T02:03:52.251Z,101437.19
2023-02-17T02:04:55.671Z,101436.79
2023-02-17T02:06:00.932Z,101434.18
2023-02-17T02:07:10.688Z,101434.42
2023-02-17T02:08:15.039Z,101430.05
2023-02-17T02:09:22.355Z,101431.38
2023-02-17T02:10:25.604Z,101431.27
2023-02-17T02:11:28.986Z,101433.00
2023-02-17T02:12:35.484Z,101425.88
2023-02-17T02:13:38.412Z,101426.21
2023-02-17T02:14:41.313Z,101425.09
2023-02-17T02:15:54.175Z,101422.83
2023-02-17T02:17:29.018Z,101422.47
2023-02-17T02:19:02.141Z,101424.20
2023-02-17T02:20:10.919Z,101421.08
2023-02-17T02:21:45.658Z,101420.58
2023-02-17T02:22:52.708Z,101418.77
2023-02-17T02:24:19.232Z,101418.23
2023-02-17T02:25:50.517Z,101420.45
2023-02-17T02:27:09.931Z,101418.77
2023-02-17T02:28:40.153Z,101420.95
2023-02-17T02:29:55.229Z,101413.36
2023-02-17T02:31:50.274Z,101413.33
2023-02-17T02:33:18.688Z,101409.86
2023-02-17T02:34:37.136Z,101407.63
2023-02-17T02:35:59.962Z,101402.92
2023-02-17T02:37:13.080Z,101406.33
2023-02-17T02:38:45.858Z,101405.45
2023-02-17T02:39:52.680Z,101399.52
2023-02-17T02:41:17.925Z,101397.17
2023-02-17T02:42:25.044Z,101395.80
2023-02-17T02:43:30.114Z,101397.23
2023-02-17T02:44:33.098Z,101392.94
2023-02-17T02:45:36.153Z,101392.43
2023-02-17T02:46:39.235Z,101390.92
2023-02-17T02:47:53.510Z,101391.46
2023-02-17T02:49:00.688Z,101385.05
2023-02-17T02:50:03.825Z,101383.45
2023-02-17T02:51:19.048Z,101383.98
2023-02-17T02:52:51.418Z,101383.45
2023-02-17T02:54:08.691Z,101382.48
2023-02-17T02:55:18.078Z,101380.91
2023-02-17T02:56:52.576Z,101378.68
2023-02-17T02:58:43.225Z,101379.23
2023-02-17T02:59:57.060Z,101376.56
2023-02-17T03:01:29.625Z,101375.13
2023-02-17T03:02:48.274Z,101373.09
2023-02-17T03:04:26.670Z,101372.97
2023-02-17T03:05:53.444Z,101365.91
2023-02-17T03:07:05.931Z,101362.30
2023-02-17T03:08:14.331Z,101365.50
2023-02-17T03:09:21.503Z,101363.67
2023-02-17T03:10:24.643Z,101355.52
2023-02-17T03:11:33.903Z,101353.52
2023-02-17T03:12:39.099Z,101352.43
2023-02-17T03:13:42.603Z,101351.20
2023-02-17T03:14:50.164Z,101348.77
2023-02-17T03:15:53.431Z,101348.52
2023-02-17T03:16:56.525Z,101348.48
2023-02-17T03:18:02.869Z,101348.11
2023-02-17T03:19:06.914Z,101348.88
2023-02-17T03:20:11.005Z,101346.61
2023-02-17T03:21:17.506Z,101343.17
2023-02-17T03:22:31.753Z,101341.17
2023-02-17T03:23:34.901Z,101341.10
2023-02-17T03:24:37.882Z,101341.80
2023-02-17T03:25:45.028Z,101340.02
2023-02-17T03:26:48.991Z,101336.63
2023-02-17T03:27:53.277Z,101341.20
2023-02-17T03:28:56.559Z,101336.66
2023-02-17T03:29:59.557Z,101342.92
2023-02-17T03:31:02.710Z,101343.23
2023-02-17T03:32:06.741Z,101344.13
2023-02-17T03:33:09.792Z,101344.36
2023-02-17T03:34:12.948Z,101344.59
2023-02-17T03:35:15.921Z,101345.42
2023-02-17T03:36:18.914Z,101339.66
2023-02-17T03:37:22.627Z,101338.10
2023-02-17T03:38:25.607Z,101331.15
2023-02-17T03:39:28.771Z,101332.30
2023-02-17T03:40:31.670Z,101333.54
2023-02-17T03:41:34.728Z,101331.14
2023-02-17T03:42:37.652Z,101332.42
2023-02-17T03:43:40.638Z,101333.97
2023-02-17T03:44:43.740Z,101333.80
2023-02-17T03:45:46.771Z,101335.17
2023-02-17T03:46:49.830Z,101333.80
2023-02-17T03:47:52.746Z,101335.86
2023-02-17T03:48:55.718Z,101339.67
2023-02-17T03:49:58.735Z,101337.57
2023-02-17T03:51:14.436Z,101336.73
2023-02-17T03:52:18.017Z,101339.90
2023-02-17T03:53:21.056Z,101335.02
2023-02-17T03:54:23.954Z,101329.94
2023-02-17T03:55:27.244Z,101327.38
2023-02-17T03:56:30.238Z,101324.87
2023-02-17T03:57:34.784Z,101326.04
2023-02-17T03:58:38.960Z,101327.58
2023-02-17T03:59:42.049Z,101331.00
2023-02-17T04:00:45.212Z,101330.32
2023-02-17T04:01:48.244Z,101328.91
2023-02-17T04:02:51.262Z,101329.97
2023-02-17T04:03:54.339Z,101325.15
2023-02-17T04:04:57.314Z,101327.77
2023-02-17T04:06:00.517Z,101325.00
2023-02-17T04:07:03.596Z,101324.77
2023-02-17T04:08:06.492Z,101325.80
2023-02-17T04:09:09.476Z,101327.34
2023-02-17T04:10:12.380Z,101327.33
2023-02-17T04:11:15.657Z,101328.99
2023-02-17T04:12:18.565Z,101325.17
2023-02-17T04:13:22.308Z,101322.42
2023-02-17T04:14:25.246Z,101322.34
2023-02-17T04:15:30.008Z,101321.96
2023-02-17T04:16:33.279Z,101320.52
2023-02-17T04:17:37.654Z,101317.54
2023-02-17T04:18:40.704Z,101316.92
2023-02-17T04:19:43.590Z,101318.79
2023-02-17T04:20:49.571Z,101316.86
2023-02-17T04:21:52.881Z,101312.33
2023-02-17T04:22:55.797Z,101308.45
2023-02-17T04:24:01.974Z,101307.67
2023-02-17T04:25:05.140Z,101314.34
2023-02-17T04:26:09.136Z,101318.35
2023-02-17T04:27:12.338Z,101318.05
2023-02-17T04:28:16.406Z,101318.21
2023-02-17T04:29:19.365Z,101316.05
2023-02-17T04:30:22.269Z,101310.58
2023-02-17T04:31:26.129Z,101309.34
2023-02-17T04:32:29.345Z,101310.64
2023-02-17T04:33:32.553Z,101316.05
2023-02-17T04:34:35.493Z,101313.02
2023-02-17T04:35:38.875Z,101314.58
2023-02-17T04:36:44.194Z,101310.44
2023-02-17T04:37:47.440Z,101312.44
2023-02-17T04:38:50.333Z,101309.07
2023-02-17T04:39:53.192Z,101308.70
2023-02-17T04:40:57.335Z,101309.80
2023-02-17T04:42:00.266Z,101312.67
2023-02-17T04:43:04.327Z,101309.58
2023-02-17T04:44:07.365Z,101307.31
2023-02-17T04:45:11.225Z,101311.70
2023-02-17T04:46:14.320Z,101310.30
2023-02-17T04:47:17.442Z,101312.01
2023-02-17T04:48:20.549Z,101306.60
2023-02-17T04:49:23.515Z,101311.20
2023-02-17T04:50:26.838Z,101307.94
2023-02-17T04:51:29.766Z,101304.03
2023-02-17T04:52:32.823Z,101302.00
2023-02-17T04:53:36.262Z,101299.73
2023-02-17T04:54:39.154Z,101298.16
2023-02-17T04:55:42.331Z,101295.95
2023-02-17T04:56:45.322Z,101292.15
2023-02-17T04:57:48.176Z,101287.93
2023-02-17T04:58:51.452Z,101292.70
2023-02-17T04:59:54.344Z,101286.69
2023-02-17T05:00:59.228Z,101288.89
2023-02-17T05:02:02.322Z,101285.98
2023-02-17T05:03:05.328Z,101287.99
2023-02-17T05:04:08.751Z,101288.43
2023-02-17T05:05:15.297Z,101290.15
2023-02-17T05:06:18.316Z,101289.30
2023-02-17T05:07:21.328Z,101291.38
2023-02-17T05:08:24.715Z,101289.94
2023-02-17T05:09:28.168Z,101289.90
2023-02-17T05:10:31.361Z,101289.70
2023-02-17T05:11:34.383Z,101288.96
2023-02-17T05:12:37.350Z,101287.52
2023-02-17T05:13:40.240Z,101288.14
2023-02-17T05:14:43.485Z,101286.40
2023-02-17T05:15:47.142Z,101284.25
2023-02-17T05:16:50.130Z,101282.64
2023-02-17T05:17:53.047Z,101278.19
2023-02-17T05:18:57.118Z,101275.12
2023-02-17T05:20:01.278Z,101272.73
2023-02-17T05:21:04.435Z,101272.17
2023-02-17T05:22:07.406Z,101274.14
2023-02-17T05:23:10.436Z,101271.36
2023-02-17T05:24:13.348Z,101276.02
2023-02-17T05:25:16.588Z,101276.27
2023-02-17T05:26:19.495Z,101275.05
2023-02-17T05:27:22.671Z,101267.83
2023-02-17T05:28:25.921Z,101267.38
2023-02-17T05:29:28.871Z,101266.21
2023-02-17T05:30:32.034Z,101266.91
2023-02-17T05:31:35.079Z,101271.76
2023-02-17T05:32:38.057Z,101272.30
2023-02-17T05:33:41.019Z,101274.33
2023-02-17T05:34:44.388Z,101272.30
2023-02-17T05:35:47.696Z,101271.16
2023-02-17T05:36:50.675Z,101274.49
2023-02-17T05:37:53.799Z,101271.25
2023-02-17T05:38:56.816Z,101271.62
2023-02-17T05:39:59.700Z,101274.52
2023-02-17T05:41:03.326Z,101273.31
2023-02-17T05:42:06.236Z,101277.38
2023-02-17T05:43:09.060Z,101276.61
2023-02-17T05:44:11.893Z,101273.77
2023-02-17T05:45:14.841Z,101271.27
2023-02-17T05:46:18.094Z,101272.41
2023-02-17T05:47:22.133Z,101268.52
2023-02-17T05:48:25.056Z,101265.77
2023-02-17T05:49:28.037Z,101263.16
2023-02-17T05:50:31.053Z,101258.80
2023-02-17T05:51:39.107Z,101260.73
2023-02-17T05:52:42.030Z,101257.86
2023-02-17T05:53:45.269Z,101257.36
2023-02-17T05:54:48.106Z,101258.16
2023-02-17T05:55:50.998Z,101253.70
2023-02-17T05:56:54.208Z,101255.64
2023-02-17T05:57:57.194Z,101252.60
2023-02-17T05:59:00.708Z,101245.61
2023-02-17T06:00:04.978Z,101247.83
2023-02-17T06:01:15.176Z,101243.48
2023-02-17T06:02:18.490Z,101240.14
2023-02-17T06:03:21.444Z,101241.95
2023-02-17T06:04:24.509Z,101241.58
2023-02-17T06:05:27.565Z,101242.45
2023-02-17T06:06:30.499Z,101243.20
2023-02-17T06:07:34.095Z,101239.11
2023-02-17T06:08:37.508Z,101238.11
2023-02-17T06:09:40.433Z,101244.64
2023-02-17T06:10:43.697Z,101240.03
2023-02-17T06:11:46.613Z,101237.70
2023-02-17T06:12:50.014Z,101234.65
2023-02-17T06:13:52.966Z,101237.13
2023-02-17T06:14:55.982Z,101232.86
2023-02-17T06:15:59.062Z,101236.02
2023-02-17T06:17:04.098Z,101224.65
2023-02-17T06:18:07.344Z,101225.77
2023-02-17T06:19:10.366Z,101223.42
2023-02-17T06:20:13.442Z,101225.90
2023-02-17T06:21:16.573Z,101221.52
2023-02-17T06:22:19.537Z,101218.07
2023-02-17T06:23:24.407Z,101218.77
2023-02-17T06:24:27.482Z,101216.33
2023-02-17T06:25:31.386Z,101214.92
2023-02-17T06:26:34.509Z,101218.63
2023-02-17T06:27:37.391Z,101214.27
2023-02-17T06:28:40.715Z,101210.55
2023-02-17T06:29:44.561Z,101210.96
2023-02-17T06:30:47.486Z,101208.52
2023-02-17T06:31:50.626Z,101210.89
2023-02-17T06:32:53.658Z,101211.13
2023-02-17T06:33:56.703Z,101209.57
2023-02-17T06:34:59.581Z,101213.42
2023-02-17T06:36:02.722Z,101214.46
2023-02-17T06:37:05.705Z,101214.25
2023-02-17T06:38:08.662Z,101209.48
2023-02-17T06:39:11.842Z,101208.52
2023-02-17T06:40:15.180Z,101211.17
2023-02-17T06:41:18.047Z,101212.25
2023-02-17T06:42:20.946Z,101211.37
2023-02-17T06:43:23.824Z,101210.86
2023-02-17T06:44:27.315Z,101214.48
2023-02-17T06:45:30.246Z,101212.15
2023-02-17T06:46:33.259Z,101212.73
2023-02-17T06:47:36.687Z,101214.11
2023-02-17T06:48:39.624Z,101212.88
2023-02-17T06:49:42.929Z,101214.00
2023-02-17T06:50:45.920Z,101214.58
2023-02-17T06:51:49.023Z,101215.27
2023-02-17T06:52:51.940Z,101214.02
2023-02-17T06:53:55.753Z,101215.52
2023-02-17T06:54:59.019Z,101212.27
2023-02-17T06:56:01.939Z,101212.17
2023-02-17T06:57:04.833Z,101213.34
2023-02-17T06:58:08.491Z,101210.74
2023-02-17T06:59:11.538Z,101214.27
2023-02-17T07:00:15.200Z,101208.40
2023-02-17T07:01:21.089Z,101210.39
2023-02-17T07:02:24.405Z,101208.14
2023-02-17T07:03:27.421Z,101206.42
2023-02-17T07:04:30.396Z,101208.88
2023-02-17T07:05:37.065Z,101205.77
2023-02-17T07:06:40.088Z,101204.58
2023-02-17T07:07:43.080Z,101200.40
2023-02-17T07:08:46.016Z,101196.63
2023-02-17T07:09:48.937Z,101195.70
2023-02-17T07:10:52.163Z,101190.88
2023-02-17T07:11:54.982Z,101186.82
2023-02-17T07:12:57.866Z,101189.19
2023-02-17T07:14:00.929Z,101185.21
2023-02-17T07:15:04.368Z,101190.44
2023-02-17T07:16:09.304Z,101188.42
2023-02-17T07:17:12.490Z,101188.77
2023-02-17T07:18:15.396Z,101184.34
2023-02-17T07:19:18.360Z,101185.95
2023-02-17T07:20:21.288Z,101187.12
2023-02-17T07:21:25.021Z,101186.42
2023-02-17T07:22:27.960Z,101185.00
2023-02-17T07:23:31.755Z,101185.63
2023-02-17T07:24:34.705Z,101188.23
2023-02-17T07:25:37.704Z,101185.77
2023-02-17T07:26:41.483Z,101189.25
2023-02-17T07:27:44.419Z,101187.91
2023-02-17T07:28:47.399Z,101187.73
2023-02-17T07:29:50.227Z,101184.89
2023-02-17T07:30:53.099Z,101179.59
2023-02-17T07:31:56.269Z,101178.95
2023-02-17T07:32:59.137Z,101178.45
2023-02-17T07:34:03.697Z,101179.06
2023-02-17T07:35:06.717Z,101177.98
2023-02-17T07:36:12.821Z,101175.69
2023-02-17T07:37:16.102Z,101173.09
2023-02-17T07:38:18.954Z,101177.77
2023-02-17T07:39:21.843Z,101171.95
2023-02-17T07:40:25.758Z,101168.91
2023-02-17T07:41:28.773Z,101160.69
2023-02-17T07:42:32.302Z,101157.28
2023-02-17T07:43:35.780Z,101157.64
2023-02-17T07:44:39.721Z,101153.98
2023-02-17T07:45:42.723Z,101153.70
2023-02-17T07:46:45.780Z,101150.89
2023-02-17T07:47:48.934Z,101149.86
2023-02-17T07:48:52.351Z,101144.68
2023-02-17T07:49:56.030Z,101143.36
2023-02-17T07:51:07.377Z,101139.13
2023-02-17T07:52:10.637Z,101134.80
2023-02-17T07:53:13.796Z,101134.41
2023-02-17T07:54:17.365Z,101131.65
2023-02-17T07:55:20.235Z,101131.09
2023-02-17T07:56:24.270Z,101123.10
2023-02-17T07:57:27.569Z,101122.33
2023-02-17T07:58:35.047Z,101121.92
2023-02-17T07:59:37.942Z,101117.89
2023-02-17T08:00:40.844Z,101120.11
2023-02-17T08:01:43.797Z,101118.18
2023-02-17T08:02:47.053Z,101117.77
2023-02-17T08:03:51.260Z,101113.98
2023-02-17T08:04:54.118Z,101114.23
2023-02-17T08:05:57.021Z,101106.91
2023-02-17T08:07:00.056Z,101110.58
2023-02-17T08:08:22.053Z,101105.23
2023-02-17T08:09:43.804Z,101107.19
2023-02-17T08:11:05.635Z,101104.30
2023-02-17T08:12:35.932Z,101103.02
2023-02-17T08:13:38.985Z,101096.02
2023-02-17T08:14:41.990Z,101092.55
2023-02-17T08:15:45.023Z,101094.77
2023-02-17T08:16:47.985Z,101087.89
2023-02-17T08:17:51.242Z,101089.70
2023-02-17T08:18:55.619Z,101083.09
2023-02-17T08:20:01.951Z,101079.07
2023-02-17T08:21:07.102Z,101079.05
2023-02-17T08:22:10.209Z,101075.80
2023-02-17T08:23:13.182Z,101077.75
2023-02-17T08:24:22.120Z,101075.41
2023-02-17T08:25:25.628Z,101076.11
2023-02-17T08:26:28.880Z,101074.61
2023-02-17T08:27:32.309Z,101068.67
2023-02-17T08:28:35.390Z,101070.42
2023-02-17T08:29:38.321Z,101069.69
2023-02-17T08:30:41.537Z,101070.80
2023-02-17T08:31:44.960Z,101073.59
2023-02-17T08:32:47.982Z,101069.98
2023-02-17T08:33:52.017Z,101067.54
2023-02-17T08:34:58.330Z,101068.66
2023-02-17T08:36:07.580Z,101071.45
2023-02-17T08:37:11.230Z,101065.73
2023-02-17T08:38:15.407Z,101064.66
2023-02-17T08:39:19.060Z,101064.77
2023-02-17T08:40:22.162Z,101066.02
2023-02-17T08:41:32.496Z,101066.96
2023-02-17T08:42:35.525Z,101068.17
2023-02-17T08:43:38.444Z,101065.66
2023-02-17T08:44:41.764Z,101061.39
2023-02-17T08:45:44.994Z,101060.97
2023-02-17T08:46:49.837Z,101060.08
2023-02-17T08:47:52.767Z,101059.77
2023-02-17T08:48:56.588Z,101053.81
2023-02-17T08:49:59.662Z,101055.39
2023-02-17T08:51:03.380Z,101050.20
2023-02-17T08:52:06.413Z,101050.57
2023-02-17T08:53:09.291Z,101051.67
2023-02-17T08:54:13.014Z,101043.66
2023-02-17T08:55:19.129Z,101047.11
2023-02-17T08:56:23.394Z,101045.31
2023-02-17T08:57:27.193Z,101039.55
2023-02-17T08:58:30.167Z,101039.16
2023-02-17T08:59:33.138Z,101035.84
2023-02-17T09:00:36.473Z,101034.66
2023-02-17T09:01:40.532Z,101033.96
2023-02-17T09:02:45.173Z,101035.78
2023-02-17T09:03:49.996Z,101033.91
2023-02-17T09:04:53.031Z,101029.36
2023-02-17T09:05:57.938Z,101026.48
2023-02-17T09:07:01.271Z,101025.98
2023-02-17T09:08:04.457Z,101028.61
2023-02-17T09:09:10.250Z,101027.32
2023-02-17T09:10:13.695Z,101026.48
2023-02-17T09:11:19.708Z,101022.75
2023-02-17T09:12:22.618Z,101026.33
2023-02-17T09:13:27.021Z,101022.95
2023-02-17T09:14:30.085Z,101021.42
2023-02-17T09:15:33.047Z,101025.56
2023-02-17T09:16:37.064Z,101020.84
2023-02-17T09:17:41.230Z,101019.10
2023-02-17T09:18:44.634Z,101020.58
2023-02-17T09:19:48.484Z,101020.08
2023-02-17T09:20:51.918Z,101015.19
2023-02-17T09:21:55.940Z,101013.53
2023-02-17T09:22:59.511Z,101014.95
2023-02-17T09:24:02.550Z,101013.30
2023-02-17T09:25:06.012Z,101011.98
2023-02-17T09:26:12.031Z,101007.58
2023-02-17T09:27:15.194Z,101008.41
2023-02-17T09:28:18.269Z,101007.45
2023-02-17T09:29:21.171Z,101004.29
2023-02-17T09:30:24.341Z,101001.30
2023-02-17T09:31:29.190Z,101000.77
2023-02-17T09:32:32.397Z,101003.31
2023-02-17T09:33:35.759Z,101000.77
2023-02-17T09:34:40.125Z,100998.23
2023-02-17T09:35:44.581Z,100999.16
2023-02-17T09:36:47.593Z,100993.15
2023-02-17T09:37:50.802Z,100991.77
2023-02-17T09:38:54.244Z,100988.47
2023-02-17T09:39:57.158Z,100987.65
2023-02-17T09:41:17.064Z,100988.02
2023-02-17T09:42:24.551Z,100984.55
2023-02-17T09:43:31.194Z,100982.25
2023-02-17T09:44:51.961Z,100977.89
2023-02-17T09:46:19.287Z,100977.10
2023-02-17T09:47:29.916Z,100972.86
2023-02-17T09:48:35.860Z,100973.79
2023-02-17T09:49:44.858Z,100971.35
2023-02-17T09:50:52.359Z,100969.71
2023-02-17T09:52:19.473Z,100964.56
2023-02-17T09:53:45.145Z,100958.90
2023-02-17T09:54:57.493Z,100955.29
2023-02-17T09:56:05.700Z,100950.00
2023-02-17T09:57:19.850Z,100951.73
2023-02-17T09:59:00.952Z,100944.47
2023-02-17T10:00:10.794Z,100941.14
2023-02-17T10:01:20.798Z,100938.52
2023-02-17T10:02:41.626Z,100931.95
2023-02-17T10:03:50.531Z,100927.21
2023-02-17T10:04:56.453Z,100925.20
2023-02-17T10:06:14.322Z,100927.67
2023-02-17T10:07:33.123Z,100927.03
2023-02-17T10:08:45.560Z,100913.41
2023-02-17T10:09:59.061Z,100912.56
2023-02-17T10:11:17.091Z,100912.62
2023-02-17T10:12:30.367Z,100914.52
2023-02-17T10:13:36.446Z,100909.41
2023-02-17T10:14:55.367Z,100902.96
2023-02-17T10:16:03.302Z,100903.09
2023-02-17T10:17:13.546Z,100898.36
2023-02-17T10:18:25.404Z,100899.07
2023-02-17T10:19:33.788Z,100890.83
2023-02-17T10:20:55.729Z,100891.81
2023-02-17T10:22:19.829Z,100884.96
2023-02-17T10:23:26.245Z,100886.23
2023-02-17T10:24:29.369Z,100883.27
2023-02-17T10:26:10.172Z,100880.40
2023-02-17T10:27:19.599Z,100872.63
2023-02-17T10:28:45.671Z,100867.94
2023-02-17T10:30:13.350Z,100864.18
2023-02-17T10:31:45.621Z,100860.25
2023-02-17T10:33:13.243Z,100855.92
2023-02-17T10:34:37.519Z,100851.98
2023-02-17T10:35:57.874Z,100854.18
2023-02-17T10:37:05.428Z,100847.45
2023-02-17T10:38:17.790Z,100852.99
2023-02-17T10:39:50.884Z,100850.70
2023-02-17T10:40:56.318Z,100845.19
2023-02-17T10:42:00.423Z,100843.75
2023-02-17T10:43:07.759Z,100839.61
2023-02-17T10:44:19.164Z,100831.56
2023-02-17T10:45:38.368Z,100824.58
2023-02-17T10:46:43.439Z,100817.11
2023-02-17T10:47:47.082Z,100814.31
2023-02-17T10:48:55.800Z,100806.80
2023-02-17T10:50:01.395Z,100805.78
2023-02-17T10:51:05.397Z,100800.56
2023-02-17T10:52:19.146Z,100797.03
2023-02-17T10:53:31.770Z,100784.98
2023-02-17T10:55:11.330Z,100787.77
2023-02-17T10:56:32.790Z,100780.83
2023-02-17T10:59:12.425Z,100771.90
2023-02-17T11:00:17.840Z,100767.88
2023-02-17T11:01:23.340Z,100763.64
2023-02-17T11:02:41.292Z,100762.50
2023-02-17T11:03:44.438Z,100761.51
2023-02-17T11:04:55.192Z,100755.63
2023-02-17T11:05:59.447Z,100753.10
2023-02-17T11:07:03.404Z,100747.11
2023-02-17T11:08:20.940Z,100747.98
2023-02-17T11:09:32.811Z,100739.52
2023-02-17T11:10:40.269Z,100736.97
2023-02-17T11:11:53.361Z,100738.88
2023-02-17T11:12:58.740Z,100737.64
2023-02-17T11:14:23.993Z,100741.10
2023-02-17T11:15:32.225Z,100737.85
2023-02-17T11:16:45.843Z,100741.20
2023-02-17T11:17:49.461Z,100735.48
2023-02-17T11:18:53.816Z,100730.70
2023-02-17T11:20:05.076Z,100725.59
2023-02-17T11:21:11.616Z,100725.67
2023-02-17T11:22:32.047Z,100722.79
2023-02-17T11:23:36.274Z,100716.94
2023-02-17T11:24:39.207Z,100712.16
2023-02-17T11:25:43.826Z,100709.21
2023-02-17T11:27:06.000Z,100700.52
2023-02-17T11:28:14.898Z,100700.83
2023-02-17T11:29:22.435Z,100696.31
2023-02-17T11:30:27.757Z,100691.74
2023-02-17T11:31:31.853Z,100694.50
2023-02-17T11:32:36.205Z,100680.11
2023-02-17T11:33:40.553Z,100680.07
2023-02-17T11:34:44.441Z,100676.70
2023-02-17T11:35:54.498Z,100680.19
2023-02-17T11:37:14.218Z,100669.25
2023-02-17T11:38:23.599Z,100666.87
2023-02-17T11:39:27.091Z,100664.77
2023-02-17T11:40:32.558Z,100660.25
2023-02-17T11:41:40.087Z,100658.33
2023-02-17T11:42:43.309Z,100656.64
2023-02-17T11:44:15.196Z,100646.61
2023-02-17T11:45:23.178Z,100647.40
2023-02-17T11:46:35.501Z,100646.40
2023-02-17T11:47:53.495Z,100638.86
2023-02-17T11:49:09.498Z,100632.04
2023-02-17T11:50:35.303Z,100631.02
2023-02-17T11:51:59.999Z,100635.84
2023-02-17T11:53:26.870Z,100623.71
2023-02-17T11:55:00.838Z,100618.94
2023-02-17T11:56:18.047Z,100615.67
2023-02-17T11:57:45.356Z,100608.71
2023-02-17T11:59:14.486Z,100608.02
2023-02-17T12:00:22.595Z,100604.43
2023-02-17T12:01:44.604Z,100600.89
2023-02-17T12:03:06.160Z,100597.73
2023-02-17T12:04:26.760Z,100599.52
2023-02-17T12:05:36.021Z,100591.84
2023-02-17T12:07:04.580Z,100594.96
2023-02-17T12:08:10.435Z,100583.70
2023-02-17T12:09:27.359Z,100587.11
2023-02-17T12:10:48.569Z,100585.59
2023-02-17T12:11:59.428Z,100583.50
2023-02-17T12:13:02.376Z,100581.85
2023-02-17T12:14:22.321Z,100578.19
2023-02-17T12:15:28.504Z,100582.09
2023-02-17T12:16:58.470Z,100573.20
2023-02-17T12:18:20.856Z,100580.60
2023-02-17T12:19:38.845Z,100574.51
2023-02-17T12:21:06.135Z,100580.86
2023-02-17T12:22:21.961Z,100567.80
2023-02-17T12:23:36.348Z,100565.12
2023-02-17T12:24:48.077Z,100559.95
2023-02-17T12:25:57.326Z,100555.23
2023-02-17T12:27:31.395Z,100555.92
2023-02-17T12:28:49.884Z,100550.58
2023-02-17T12:30:11.806Z,100549.63
2023-02-17T12:31:14.802Z,100553.52
2023-02-17T12:32:33.426Z,100541.81
2023-02-17T12:33:52.192Z,100540.46
2023-02-17T12:35:16.373Z,100537.30
2023-02-17T12:36:21.035Z,100532.70
2023-02-17T12:37:38.865Z,100529.54
2023-02-17T12:38:46.867Z,100524.98
2023-02-17T12:39:56.351Z,100526.52
2023-02-17T12:41:17.523Z,100517.11
2023-02-17T12:42:26.289Z,100513.48
2023-02-17T12:43:36.546Z,100509.45
2023-02-17T12:44:46.172Z,100503.58
2023-02-17T12:45:51.346Z,100504.69
2023-02-17T12:46:58.618Z,100501.93
2023-02-17T12:48:07.420Z,100498.77
2023-02-17T12:49:30.376Z,100498.64